Time;durP1;ratioP1;P1;durP2;ratioP2;P2;SDS_P1;SDS_P2;PMS_P1;PMS_P2;Temp;Humidity;BMP_temperature;BMP_pressure;BME280_temperature;BME280_humidity;BME280_pressure;Samples;Min_cycle;Max_cycle;Signal;HPM_P1;HPM_P2
2022/10/29 00:01:16;;;;;;;1.00;0.95;;;;;;;13.35;91.57;100702.78;5096348;28;20090;-71
2022/10/29 00:03:46;;;;;;;2.30;1.70;;;;;;;13.40;91.59;100701.94;5096493;28;20131;-71
2022/10/29 00:06:15;;;;;;;4.20;3.67;;;;;;;13.20;91.29;100669.38;5096215;28;20485;-71
2022/10/29 00:08:45;;;;;;;1.60;1.50;;;;;;;13.40;91.21;100714.78;5096456;28;20405;-72
2022/10/29 00:11:17;;;;;;;2.78;1.92;;;;;;;13.42;91.23;100713.06;5096461;28;20059;-70
2022/10/29 00:13:47;;;;;;;1.77;1.45;;;;;;;13.44;90.91;100716.50;5096124;28;20067;-71
2022/10/29 00:16:17;;;;;;;;;;;;;;;13.44;91.04;100716.50;5096439;28;20044;-70
2022/10/29 00:18:46;;;;;;;2.17;1.60;;;;;;;13.46;91.00;100719.06;5095998;28;19977;-70
2022/10/29 00:21:17;;;;;;;1.60;1.50;;;;;;;13.41;91.06;100716.47;5096210;28;20048;-71
2022/10/29 00:23:48;;;;;;;2.50;1.92;;;;;;;13.41;91.25;100720.75;5095919;28;20044;-71
2022/10/29 00:26:19;;;;;;;3.95;2.38;;;;;;;13.40;91.41;100708.78;5096092;28;20074;-70
2022/10/29 00:28:52;;;;;;;2.88;1.98;;;;;;;13.39;91.56;100707.91;5095816;28;20097;-71
2022/10/29 00:31:23;;;;;;;2.53;2.33;;;;;;;13.30;91.56;100682.25;5096059;28;20067;-71
2022/10/29 00:33:52;;;;;;;1.65;1.48;;;;;;;13.41;91.33;100705.38;5095667;28;20048;-71
2022/10/29 00:36:22;;;;;;;5.25;2.00;;;;;;;13.36;91.30;100697.63;5095866;28;20056;-70
2022/10/29 00:38:52;;;;;;;2.13;1.77;;;;;;;13.39;91.34;100696.78;5095600;28;20069;-71
2022/10/29 00:41:25;;;;;;;3.15;2.58;;;;;;;13.34;91.47;100689.09;5095567;28;20485;-69
2022/10/29 00:44:26;;;;;;;2.38;2.17;;;;;;;13.37;91.47;100696.81;5095026;28;20052;-71
2022/10/29 00:47:01;;;;;;;3.20;2.90;;;;;;;13.36;91.53;100687.38;5095696;28;20464;-70
2022/10/29 00:49:31;;;;;;;2.72;1.70;;;;;;;13.38;91.76;100695.09;5095359;28;20555;-70
2022/10/29 00:52:02;;;;;;;1.33;1.23;;;;;;;13.37;91.50;100691.66;5095626;28;20036;-71
2022/10/29 00:54:35;;;;;;;3.72;2.42;;;;;;;13.30;91.80;100682.25;5095202;28;20132;-71
2022/10/29 00:57:08;;;;;;;2.78;1.95;;;;;;;13.38;91.97;100695.97;5095490;28;20089;-70
2022/10/29 00:59:38;;;;;;;3.83;2.67;;;;;;;13.38;92.18;100690.84;5095551;28;20048;-70
2022/10/29 01:02:06;;;;;;;6.73;2.20;;;;;;;13.39;91.97;100695.09;5095107;28;20090;-70
2022/10/29 01:04:37;;;;;;;2.13;1.75;;;;;;;13.40;92.08;100693.41;5095423;28;20047;-70
2022/10/29 01:07:06;;;;;;;3.20;2.28;;;;;;;13.39;92.03;100682.28;5095080;28;20039;-70
2022/10/29 01:09:37;;;;;;;3.17;2.58;;;;;;;13.38;92.41;100693.41;5094089;28;20040;-70
2022/10/29 01:12:32;;;;;;;2.15;1.10;;;;;;;13.38;92.31;100685.72;5094970;28;20058;-71
2022/10/29 01:15:13;;;;;;;2.13;1.98;;;;;;;13.37;92.03;100683.97;5093543;28;20440;-71
2022/10/29 01:17:58;;;;;;;1.85;1.75;;;;;;;13.34;92.26;100678.84;5094783;28;20040;-71
2022/10/29 01:20:58;;;;;;;2.95;2.67;;;;;;;13.33;92.21;100669.44;5094021;28;20520;-71
2022/10/29 01:23:39;;;;;;;;;;;;;;;13.35;92.68;100672.88;5095158;28;20093;-71
2022/10/29 01:26:34;;;;;;;2.88;1.75;;;;;;;13.34;92.71;100665.19;5095037;28;19978;-71
2022/10/29 01:29:19;;;;;;;1.98;1.85;;;;;;;13.33;92.62;100666.88;5094611;28;20040;-70
2022/10/29 01:31:53;;;;;;;0.70;0.70;;;;;;;13.34;92.82;100668.56;5095163;28;20410;-71
2022/10/29 01:34:28;;;;;;;3.92;2.72;;;;;;;13.36;92.80;100671.16;5094468;28;20040;-71
2022/10/29 01:37:01;;;;;;;3.83;2.72;;;;;;;13.33;92.60;100677.13;5094776;28;20440;-71
2022/10/29 01:39:37;;;;;;;0.85;0.85;;;;;;;13.34;92.79;100673.69;5094517;28;20071;-71
2022/10/29 01:42:12;;;;;;;1.85;1.60;;;;;;;13.33;92.57;100677.13;5094401;28;20097;-70
2022/10/29 01:44:46;;;;;;;1.90;1.77;;;;;;;13.33;92.72;100682.25;5094360;28;20135;-70
2022/10/29 01:47:19;;;;;;;1.48;1.35;;;;;;;13.32;93.03;100680.53;5094835;28;20052;-71
2022/10/29 01:49:51;;;;;;;3.33;1.73;;;;;;;13.34;92.49;100678.84;5094326;28;20055;-70
2022/10/29 01:52:23;;;;;;;3.38;2.65;;;;;;;13.33;93.06;100672.00;5094228;28;20044;-71
2022/10/29 01:54:51;;;;;;;2.25;1.55;;;;;;;13.29;92.66;100664.31;5094101;28;20501;-71
2022/10/29 01:57:29;;;;;;;3.70;2.17;;;;;;;13.33;92.93;100666.88;5094537;28;20032;-70
2022/10/29 02:00:03;;;;;;;1.48;1.38;;;;;;;13.32;92.44;100659.16;5094352;28;20040;-70
2022/10/29 02:03:00;;;;;;;3.92;2.58;;;;;;;13.31;92.74;100657.47;5094375;28;20048;-70
2022/10/29 02:05:34;;;;;;;1.48;1.35;;;;;;;13.28;92.53;100660.88;5094576;28;20535;-71
2022/10/29 02:08:17;;;;;;;3.28;2.95;;;;;;;13.24;92.83;100650.59;5092992;28;20069;-70
2022/10/29 02:10:51;;;;;;;2.25;1.40;;;;;;;13.32;93.13;100647.19;5093031;28;20097;-71
2022/10/29 02:13:28;;;;;;;1.48;1.35;;;;;;;13.32;92.72;100639.50;5092994;28;20048;-70
2022/10/29 02:15:58;;;;;;;4.13;2.03;;;;;;;13.28;92.90;100632.66;5093867;28;20071;-70
2022/10/29 02:18:28;;;;;;;2.05;1.85;;;;;;;13.28;93.01;100637.78;5094369;28;20067;-70
2022/10/29 02:20:57;;;;;;;7.32;2.30;;;;;;;13.15;92.88;100610.38;5094396;28;20048;-71
2022/10/29 02:23:26;;;;;;;1.58;1.45;;;;;;;13.27;92.77;100628.38;5093739;28;20047;-70
2022/10/29 02:25:55;;;;;;;2.00;1.85;;;;;;;13.27;92.86;100630.06;5093713;28;20052;-70
2022/10/29 02:28:24;;;;;;;3.67;1.92;;;;;;;13.27;92.59;100633.50;5093970;28;20406;-71
2022/10/29 02:30:52;;;;;;;4.47;2.27;;;;;;;13.21;92.94;100625.81;5093892;28;20520;-71
2022/10/29 02:33:21;;;;;;;2.10;1.58;;;;;;;13.28;92.67;100635.22;5093946;28;20127;-71
2022/10/29 02:35:51;;;;;;;4.17;2.83;;;;;;;13.28;92.88;100635.22;5093509;28;20032;-70
2022/10/29 02:38:20;;;;;;;1.85;1.70;;;;;;;13.25;92.56;100635.22;5093933;28;20052;-71
2022/10/29 02:40:48;;;;;;;1.75;1.38;;;;;;;13.26;92.94;100644.63;5093484;28;20044;-70
2022/10/29 02:43:17;;;;;;;1.85;1.33;;;;;;;13.25;92.65;100632.66;5093963;28;20044;-70
2022/10/29 02:45:56;;;;;;;4.05;2.35;;;;;;;13.25;92.59;100630.09;5093869;28;20062;-70
2022/10/29 02:48:25;;;;;;;16.25;4.18;;;;;;;13.17;92.79;100618.94;5093866;28;20082;-71
2022/10/29 02:50:55;;;;;;;6.50;2.80;;;;;;;13.17;92.68;100624.06;5092592;28;20044;-70
2022/10/29 02:53:24;;;;;;;3.05;1.92;;;;;;;13.23;92.50;100631.78;5094090;28;20098;-70
2022/10/29 02:55:52;;;;;;;3.85;1.42;;;;;;;13.17;92.65;100634.31;5093377;28;20051;-71
2022/10/29 02:58:21;;;;;;;4.05;2.22;;;;;;;13.26;92.77;100644.63;5093409;28;20036;-70
2022/10/29 03:00:50;;;;;;;2.08;1.77;;;;;;;13.23;92.55;100639.47;5092064;28;20060;-71
2022/10/29 03:03:19;;;;;;;4.90;2.75;;;;;;;13.24;92.44;100636.09;5093679;28;20105;-71
2022/10/29 03:05:48;;;;;;;2.10;1.42;;;;;;;13.17;92.18;100613.81;5093505;28;20044;-71
2022/10/29 03:08:19;;;;;;;9.93;2.33;;;;;;;13.19;92.57;100632.66;5095303;28;20074;-70
2022/10/29 03:10:47;;;;;;;3.50;2.08;;;;;;;12.92;92.55;100596.59;5097507;28;20289;-70
2022/10/29 03:13:16;;;;;;;1.95;1.30;;;;;;;13.10;92.87;100636.88;5097565;28;20067;-71
2022/10/29 03:15:46;;;;;;;1.77;1.35;;;;;;;13.07;92.54;100636.84;5097111;28;20134;-71
2022/10/29 03:18:14;;;;;;;7.32;1.65;;;;;;;13.02;92.33;100639.38;5097147;28;20032;-71
2022/10/29 03:20:44;;;;;;;2.30;1.77;;;;;;;13.02;92.62;100644.50;5097014;28;20497;-71
2022/10/29 03:23:12;;;;;;;;;;;;;;;13.07;92.19;100641.97;5096552;28;20047;-70
2022/10/29 03:25:43;;;;;;;2.17;1.70;;;;;;;13.08;92.07;100639.41;5097296;28;20259;-70
2022/10/29 03:28:11;;;;;;;1.23;1.10;;;;;;;13.10;92.31;100645.41;5097263;28;20502;-68
2022/10/29 03:30:40;;;;;;;7.10;0.75;;;;;;;13.11;92.31;100644.56;5096904;28;20048;-71
2022/10/29 03:33:09;;;;;;;3.03;2.72;;;;;;;13.13;92.03;100647.13;5096860;28;20498;-71
2022/10/29 03:35:37;;;;;;;2.97;1.75;;;;;;;13.09;91.97;100630.03;5095564;28;20043;-71
2022/10/29 03:38:06;;;;;;;2.20;1.33;;;;;;;13.04;92.15;100631.66;5097089;28;20059;-72
2022/10/29 03:40:34;;;;;;;1.33;1.02;;;;;;;12.97;92.41;100635.91;5097054;28;20029;-71
2022/10/29 03:43:04;;;;;;;4.72;2.60;;;;;;;12.96;92.31;100638.44;5095757;28;20093;-72
2022/10/29 03:45:33;;;;;;;1.35;1.23;;;;;;;12.96;92.23;100647.00;5096959;28;20059;-70
2022/10/29 03:48:04;;;;;;;1.55;1.33;;;;;;;12.97;92.08;100651.28;5097051;28;20040;-70
2022/10/29 03:50:33;;;;;;;1.30;1.20;;;;;;;13.00;92.22;100661.56;5096794;28;20054;-71
2022/10/29 03:53:01;;;;;;;1.48;1.38;;;;;;;13.02;92.08;100661.56;5096682;28;20089;-70
2022/10/29 03:55:30;;;;;;;0.77;0.77;;;;;;;12.99;92.28;100657.28;5097101;28;20089;-70
2022/10/29 03:57:59;;;;;;;2.90;2.20;;;;;;;13.01;92.32;100653.00;5096961;28;20106;-70
2022/10/29 04:00:29;;;;;;;0.50;0.50;;;;;;;13.00;92.12;100656.44;5096273;28;20040;-71
2022/10/29 04:02:58;;;;;;;2.38;1.35;;;;;;;13.00;92.18;100650.44;5096508;28;20040;-70
2022/10/29 04:05:27;;;;;;;3.67;2.75;;;;;;;13.07;92.07;100645.41;5096207;28;20134;-70
2022/10/29 04:07:56;;;;;;;2.00;1.80;;;;;;;13.05;92.24;100630.84;5096166;28;20551;-70
2022/10/29 04:10:25;;;;;;;0.80;0.80;;;;;;;13.03;92.28;100630.81;5096449;28;20061;-70
2022/10/29 04:12:54;;;;;;;4.30;2.47;;;;;;;13.04;92.23;100647.91;5096056;28;20071;-71
2022/10/29 04:15:23;;;;;;;1.80;1.40;;;;;;;13.06;92.22;100660.75;5095968;28;20044;-71
2022/10/29 04:17:53;;;;;;;3.78;2.15;;;;;;;13.06;91.85;100641.13;5096286;28;20399;-71
2022/10/29 04:20:22;;;;;;;2.67;1.70;;;;;;;13.08;92.16;100644.53;5094743;28;20052;-70
2022/10/29 04:23:11;;;;;;;5.50;3.40;;;;;;;13.05;92.30;100621.41;5095932;28;20076;-71
2022/10/29 04:26:00;;;;;;;1.25;1.15;;;;;;;13.01;92.02;100624.81;5095933;28;20044;-70
2022/10/29 04:28:49;;;;;;;1.55;1.25;;;;;;;13.09;92.30;100642.84;5096763;28;20044;-70
2022/10/29 04:31:18;;;;;;;1.65;1.38;;;;;;;13.12;91.90;100645.41;5094781;28;20040;-69
2022/10/29 04:33:49;;;;;;;2.17;1.98;;;;;;;13.12;91.98;100661.66;5095673;28;20051;-71
2022/10/29 04:36:17;;;;;;;13.85;1.20;;;;;;;13.07;92.23;100647.97;5096028;28;20056;-70
2022/10/29 04:38:46;;;;;;;1.75;1.50;;;;;;;13.13;92.09;100640.28;5095915;28;20481;-71
2022/10/29 04:41:14;;;;;;;3.53;2.25;;;;;;;13.11;92.25;100639.44;5094194;28;20052;-70
2022/10/29 04:43:43;;;;;;;1.45;1.35;;;;;;;13.11;91.91;100644.56;5096018;28;20051;-71
2022/10/29 04:46:12;;;;;;;1.53;1.43;;;;;;;13.04;92.32;100632.53;5094616;28;20047;-71
2022/10/29 04:48:41;;;;;;;4.57;2.93;;;;;;;13.01;91.94;100626.53;5095437;28;20276;-70
2022/10/29 04:51:19;;;;;;;4.18;3.03;;;;;;;13.11;91.97;100636.88;5095707;28;20028;-71
2022/10/29 04:53:48;;;;;;;3.97;2.28;;;;;;;13.09;91.98;100628.31;5094287;28;20398;-71
2022/10/29 04:56:17;;;;;;;3.08;2.75;;;;;;;13.11;92.32;100618.94;5093929;28;20408;-69
2022/10/29 04:58:46;;;;;;;5.85;3.60;;;;;;;13.11;92.03;100618.94;5095287;28;20043;-70
2022/10/29 05:01:14;;;;;;;3.60;1.90;;;;;;;13.10;91.84;100624.88;5094921;28;20048;-71
2022/10/29 05:03:43;;;;;;;;;;;;;;;13.09;92.20;100625.75;5095497;28;20058;-70
2022/10/29 05:06:12;;;;;;;4.50;2.25;;;;;;;13.07;91.63;100606.97;5094090;28;19943;-70
2022/10/29 05:08:42;;;;;;;2.55;1.88;;;;;;;13.06;91.73;100606.94;5095304;28;20547;-70
2022/10/29 05:11:11;;;;;;;1.88;1.33;;;;;;;13.03;92.01;100605.19;5094999;28;20068;-71
2022/10/29 05:13:40;;;;;;;3.53;2.40;;;;;;;13.06;91.84;100600.09;5094896;28;20048;-70
2022/10/29 05:16:09;;;;;;;2.83;2.20;;;;;;;13.08;92.17;100607.78;5094748;28;20127;-71
2022/10/29 05:18:38;;;;;;;2.42;1.67;;;;;;;13.07;91.90;100622.34;5094824;28;20039;-70
2022/10/29 05:21:07;;;;;;;1.77;1.25;;;;;;;13.08;92.18;100608.66;5094763;28;20047;-71
2022/10/29 05:23:35;;;;;;;1.27;1.17;;;;;;;13.00;91.83;100614.56;5094728;28;20513;-71
2022/10/29 05:26:06;;;;;;;2.75;1.58;;;;;;;13.06;92.01;100630.88;5094956;28;20051;-71
2022/10/29 05:28:35;;;;;;;3.85;2.95;;;;;;;13.05;92.11;100618.84;5093704;28;20403;-69
2022/10/29 05:31:04;;;;;;;1.08;0.90;;;;;;;13.05;92.16;100618.84;5094190;28;20043;-70
2022/10/29 05:33:32;;;;;;;1.83;1.57;;;;;;;13.02;91.82;100629.13;5094554;28;20040;-70
2022/10/29 05:36:01;;;;;;;2.92;1.08;;;;;;;12.84;92.17;100602.56;5094704;28;20047;-69
2022/10/29 05:38:30;;;;;;;1.85;1.52;;;;;;;13.05;91.83;100634.22;5094799;28;20036;-69
2022/10/29 05:40:58;;;;;;;3.45;2.80;;;;;;;13.04;91.90;100634.22;5094733;28;20040;-71
2022/10/29 05:43:28;;;;;;;2.28;1.65;;;;;;;13.02;91.99;100630.81;5094362;28;20036;-70
2022/10/29 05:45:57;;;;;;;4.65;1.58;;;;;;;13.01;92.10;100642.75;5094862;28;20036;-71
2022/10/29 05:48:26;;;;;;;4.03;1.90;;;;;;;13.02;92.02;100634.25;5094549;28;20123;-71
2022/10/29 05:50:54;;;;;;;2.53;2.15;;;;;;;13.03;92.29;100633.38;5094505;28;20305;-70
2022/10/29 05:53:23;;;;;;;2.58;1.92;;;;;;;12.87;91.94;100593.16;5093323;28;20036;-70
2022/10/29 05:55:52;;;;;;;4.38;1.55;;;;;;;13.08;92.33;100624.03;5094010;28;20048;-70
2022/10/29 05:58:20;;;;;;;3.22;2.85;;;;;;;13.02;92.03;100613.72;5094069;28;20047;-70
2022/10/29 06:00:50;;;;;;;3.90;2.00;;;;;;;13.02;92.17;100613.72;5094127;28;20052;-72
2022/10/29 06:03:22;;;;;;;1.10;1.05;;;;;;;12.92;92.07;100588.91;5094107;28;20040;-70
2022/10/29 06:05:51;;;;;;;4.93;1.80;;;;;;;12.88;92.09;100605.13;5094062;28;20047;-69
2022/10/29 06:08:20;;;;;;;1.85;1.75;;;;;;;12.94;92.63;100641.03;5094419;28;20050;-70
2022/10/29 06:10:49;;;;;;;1.42;1.13;;;;;;;12.96;92.74;100649.56;5093505;28;20131;-71
2022/10/29 06:13:19;;;;;;;4.70;2.80;;;;;;;13.01;92.17;100647.88;5093768;28;20335;-70
2022/10/29 06:15:51;;;;;;;3.58;2.08;;;;;;;13.05;92.45;100652.16;5093656;28;20051;-69
2022/10/29 06:18:19;;;;;;;1.80;1.70;;;;;;;13.02;92.68;100654.75;5093563;28;20100;-71
2022/10/29 06:20:48;;;;;;;2.42;2.22;;;;;;;13.03;92.91;100638.50;5093521;28;20051;-71
2022/10/29 06:23:16;;;;;;;1.23;1.13;;;;;;;13.05;92.89;100653.91;5093568;28;20123;-71
2022/10/29 06:25:45;;;;;;;1.70;1.60;;;;;;;13.06;92.76;100653.06;5093546;28;20055;-71
2022/10/29 06:28:15;;;;;;;6.40;3.15;;;;;;;13.06;93.02;100645.38;5094107;28;20466;-70
2022/10/29 06:30:47;;;;;;;2.65;2.08;;;;;;;13.05;92.69;100670.13;5093972;28;20052;-69
2022/10/29 06:33:19;;;;;;;4.00;1.63;;;;;;;13.01;93.05;100663.25;5093905;28;20394;-69
2022/10/29 06:35:48;;;;;;;1.35;1.02;;;;;;;13.01;93.17;100673.53;5093581;28;20048;-70
2022/10/29 06:38:17;;;;;;;4.47;1.88;;;;;;;13.03;93.36;100676.94;5093790;28;20048;-70
2022/10/29 06:40:53;;;;;;;4.80;2.28;;;;;;;13.00;93.27;100656.44;5093649;28;20040;-70
2022/10/29 06:43:22;;;;;;;1.35;1.25;;;;;;;13.03;93.34;100655.59;5095563;28;20048;-71
2022/10/29 06:45:50;;;;;;;1.65;1.25;;;;;;;13.01;93.25;100660.69;5097656;28;20070;-70
2022/10/29 06:48:23;;;;;;;1.50;1.40;;;;;;;13.02;93.57;100654.75;5097516;28;20071;-70
2022/10/29 06:50:52;;;;;;;1.60;1.50;;;;;;;13.05;93.64;100644.47;5097353;28;20044;-69
2022/10/29 06:53:21;;;;;;;0.75;0.75;;;;;;;13.04;93.32;100647.91;5096709;28;20066;-71
2022/10/29 06:55:49;;;;;;;4.03;1.95;;;;;;;13.04;93.67;100631.66;5097876;28;20089;-71
2022/10/29 06:58:20;;;;;;;3.67;0.85;;;;;;;13.07;93.63;100631.72;5097397;28;20044;-71
2022/10/29 07:00:49;;;;;;;1.70;1.60;;;;;;;13.06;93.43;100638.56;5097047;28;20105;-71
2022/10/29 07:03:24;;;;;;;5.60;2.10;;;;;;;13.05;93.93;100629.09;5098072;28;20135;-71
2022/10/29 07:05:56;;;;;;;3.45;1.77;;;;;;;13.04;93.66;100635.09;5098085;28;20424;-70
2022/10/29 07:08:24;;;;;;;2.53;1.85;;;;;;;12.98;93.40;100632.50;5097349;28;20040;-70
2022/10/29 07:10:54;;;;;;;3.38;2.83;;;;;;;13.07;93.94;100653.09;5097677;28;20044;-70
2022/10/29 07:13:23;;;;;;;2.95;1.35;;;;;;;13.07;93.47;100647.97;5095996;28;20444;-69
2022/10/29 07:15:51;;;;;;;1.83;1.70;;;;;;;13.02;93.30;100643.63;5097485;28;20157;-68
2022/10/29 07:18:21;;;;;;;2.10;1.90;;;;;;;13.07;93.47;100653.09;5097575;28;20082;-69
2022/10/29 07:20:50;;;;;;;1.20;1.08;;;;;;;13.07;93.59;100653.09;5097146;28;20048;-70
2022/10/29 07:23:19;;;;;;;1.40;0.63;;;;;;;13.01;93.67;100644.47;5097664;28;20033;-70
2022/10/29 07:25:47;;;;;;;3.40;1.97;;;;;;;13.07;93.57;100665.03;5097622;28;20036;-70
2022/10/29 07:28:19;;;;;;;1.88;1.63;;;;;;;13.01;93.65;100662.41;5096975;28;20036;-70
2022/10/29 07:30:48;;;;;;;2.17;1.27;;;;;;;13.05;93.27;100670.13;5097340;28;20043;-70
2022/10/29 07:33:17;;;;;;;1.08;1.02;;;;;;;13.05;93.59;100662.41;5096947;28;20047;-70
2022/10/29 07:35:47;;;;;;;1.17;1.08;;;;;;;13.05;93.22;100652.16;5096703;28;20098;-70
2022/10/29 07:38:16;;;;;;;0.82;0.82;;;;;;;13.05;93.44;100643.66;5096949;28;20063;-70
2022/10/29 07:40:49;;;;;;;9.88;2.25;;;;;;;13.09;93.24;100646.25;5096738;28;20058;-71
2022/10/29 07:43:19;;;;;;;2.03;1.38;;;;;;;13.11;93.44;100629.19;5097024;28;20101;-71
2022/10/29 07:45:50;;;;;;;1.67;0.88;;;;;;;13.14;93.44;100634.31;5096648;28;20055;-70
2022/10/29 07:48:20;;;;;;;3.17;1.52;;;;;;;13.15;93.26;100625.78;5096569;28;20073;-70
2022/10/29 07:50:50;;;;;;;1.33;1.23;;;;;;;13.13;93.18;100630.03;5096517;28;20135;-70
2022/10/29 07:53:19;;;;;;;0.90;0.70;;;;;;;13.10;93.02;100627.44;5096231;28;20058;-71
2022/10/29 07:55:53;;;;;;;2.22;2.03;;;;;;;13.13;93.10;100627.47;5096388;28;20044;-70
2022/10/29 07:58:22;;;;;;;1.40;1.30;;;;;;;13.16;92.80;100627.50;5096382;28;20490;-71
2022/10/29 08:00:51;;;;;;;1.20;1.05;;;;;;;13.14;92.80;100631.75;5096241;28;20035;-70
2022/10/29 08:03:20;;;;;;;2.20;1.50;;;;;;;13.16;92.83;100631.75;5096344;28;20052;-71
2022/10/29 08:05:50;;;;;;;2.63;1.35;;;;;;;13.21;92.55;100627.50;5096462;28;20440;-71
2022/10/29 08:08:24;;;;;;;2.10;1.55;;;;;;;13.24;92.23;100628.41;5096285;28;20048;-71
2022/10/29 08:10:52;;;;;;;1.25;1.15;;;;;;;13.30;92.45;100630.97;5096767;28;20512;-70
2022/10/29 08:13:21;;;;;;;2.00;1.52;;;;;;;13.32;92.50;100634.38;5096401;28;20040;-70
2022/10/29 08:15:50;;;;;;;1.92;1.38;;;;;;;13.30;92.27;100641.22;5096062;28;20047;-70
2022/10/29 08:18:18;;;;;;;1.08;0.88;;;;;;;13.26;91.97;100639.50;5095810;28;20032;-70
2022/10/29 08:20:47;;;;;;;7.63;2.67;;;;;;;13.22;91.84;100636.94;5096269;28;20462;-71
2022/10/29 08:23:17;;;;;;;1.25;1.15;;;;;;;13.24;91.51;100643.78;5095874;28;20048;-71
2022/10/29 08:25:46;;;;;;;1.95;1.50;;;;;;;13.26;91.42;100648.91;5095875;28;20052;-71
2022/10/29 08:28:15;;;;;;;2.40;1.42;;;;;;;13.29;91.32;100664.31;5096098;28;20051;-71
2022/10/29 08:30:49;;;;;;;1.27;0.90;;;;;;;13.33;91.29;100661.75;5096061;28;20044;-71
2022/10/29 08:33:19;;;;;;;5.05;2.15;;;;;;;13.34;91.56;100658.31;5096014;28;20048;-70
2022/10/29 08:35:48;;;;;;;5.35;2.58;;;;;;;13.39;91.06;100660.91;5095978;28;20063;-71
2022/10/29 08:38:18;;;;;;;2.53;1.88;;;;;;;13.36;91.24;100645.53;5095798;28;20079;-71
2022/10/29 08:41:02;;;;;;;0.80;0.80;;;;;;;13.44;90.74;100654.06;5095912;28;20139;-71
2022/10/29 08:43:59;;;;;;;1.00;0.95;;;;;;;13.47;90.83;100658.34;5096217;28;20040;-71
2022/10/29 08:46:38;;;;;;;0.75;0.75;;;;;;;13.51;90.70;100645.53;5095735;28;20420;-71
2022/10/29 08:49:14;;;;;;;4.05;2.92;;;;;;;13.52;90.88;100656.66;5095694;28;20074;-70
2022/10/29 08:51:47;;;;;;;2.67;1.95;;;;;;;13.46;90.36;100641.28;5095369;28;20047;-69
2022/10/29 08:54:18;;;;;;;4.90;1.58;;;;;;;13.52;90.73;100648.97;5095431;28;20101;-70
2022/10/29 08:57:06;;;;;;;0.82;0.82;;;;;;;13.56;90.22;100653.25;5095200;28;20052;-70
2022/10/29 08:59:41;;;;;;;1.63;1.50;;;;;;;13.56;90.00;100650.69;5095612;28;20074;-70
2022/10/29 09:02:17;;;;;;;1.40;1.23;;;;;;;13.56;89.75;100658.38;5095150;28;20424;-70
2022/10/29 09:04:46;;;;;;;1.08;0.80;;;;;;;13.59;89.71;100654.13;5095195;28;20052;-70
2022/10/29 09:07:31;;;;;;;7.72;2.53;;;;;;;13.62;89.52;100654.16;5094660;28;20040;-70
2022/10/29 09:10:10;;;;;;;3.30;1.38;;;;;;;13.65;89.81;100658.44;5095198;28;20493;-71
2022/10/29 09:12:56;;;;;;;4.07;1.95;;;;;;;13.67;89.44;100647.31;5095003;28;20044;-70
2022/10/29 09:15:38;;;;;;;1.55;1.45;;;;;;;13.72;89.51;100647.31;5095184;28;20055;-71
2022/10/29 09:18:28;;;;;;;2.60;2.10;;;;;;;13.73;89.42;100646.47;5093617;28;20109;-70
2022/10/29 09:21:06;;;;;;;1.20;1.10;;;;;;;13.73;89.20;100641.31;5094699;28;20502;-69
2022/10/29 09:23:52;;;;;;;0.63;0.63;;;;;;;13.74;89.14;100641.34;5095046;28;20048;-71
2022/10/29 09:26:29;;;;;;;4.00;1.38;;;;;;;13.78;89.00;100639.63;5094622;28;20079;-70
2022/10/29 09:29:18;;;;;;;1.45;0.82;;;;;;;13.83;88.81;100635.34;5094693;28;20124;-70
2022/10/29 09:31:50;;;;;;;1.70;1.58;;;;;;;13.84;88.33;100639.66;5094601;28;20047;-70
2022/10/29 09:34:29;;;;;;;1.73;1.10;;;;;;;13.86;88.80;100628.53;5093417;28;20105;-70
2022/10/29 09:36:58;;;;;;;2.83;1.85;;;;;;;13.90;88.54;100631.94;5094774;28;20134;-70
2022/10/29 09:39:33;;;;;;;1.00;0.82;;;;;;;13.92;88.21;100632.78;5094634;28;20071;-71
2022/10/29 09:42:11;;;;;;;1.73;1.33;;;;;;;13.93;88.33;100637.94;5093882;28;20048;-70
2022/10/29 09:44:49;;;;;;;2.05;1.50;;;;;;;13.95;87.88;100648.22;5094378;28;20041;-70
2022/10/29 09:47:28;;;;;;;1.35;1.23;;;;;;;13.91;88.40;100636.25;5094354;28;20139;-70
2022/10/29 09:50:03;;;;;;;;;;;;;;;13.98;88.00;100643.09;5094939;28;20094;-70
2022/10/29 09:52:39;;;;;;;2.00;1.25;;;;;;;14.02;87.74;100639.66;5093382;28;20010;-71
2022/10/29 09:55:17;;;;;;;1.80;1.48;;;;;;;14.00;87.70;100642.22;5094161;28;20036;-70
2022/10/29 09:57:48;;;;;;;2.25;2.08;;;;;;;14.04;87.98;100640.50;5094160;28;20040;-71
2022/10/29 10:00:23;;;;;;;2.03;1.83;;;;;;;14.07;87.75;100630.25;5094424;28;20101;-70
2022/10/29 10:03:01;;;;;;;1.40;1.25;;;;;;;14.04;87.86;100618.25;5093970;28;20055;-71
2022/10/29 10:05:32;;;;;;;5.00;1.67;;;;;;;14.12;87.40;100625.97;5094392;28;20047;-71
2022/10/29 10:08:10;;;;;;;8.18;2.22;;;;;;;14.14;87.49;100624.25;5094528;28;20040;-70
2022/10/29 10:10:51;;;;;;;0.88;0.88;;;;;;;14.19;87.22;100607.16;5093890;28;20075;-70
2022/10/29 10:13:24;;;;;;;1.60;1.50;;;;;;;14.18;87.20;100594.31;5094281;28;20109;-71
2022/10/29 10:15:56;;;;;;;1.55;1.35;;;;;;;14.17;87.30;100603.72;5093890;28;20053;-70
2022/10/29 10:18:27;;;;;;;1.10;1.00;;;;;;;14.06;86.92;100590.03;5093737;28;20122;-71
2022/10/29 10:21:06;;;;;;;0.70;0.70;;;;;;;14.09;87.15;100600.28;5093879;28;20559;-70
2022/10/29 10:23:45;;;;;;;3.55;1.42;;;;;;;14.12;86.98;100600.31;5094448;28;20101;-71
2022/10/29 10:26:32;;;;;;;2.20;1.33;;;;;;;14.12;86.98;100600.31;5093828;28;20048;-71
2022/10/29 10:29:11;;;;;;;1.23;1.13;;;;;;;14.15;86.57;100595.19;5093697;28;20130;-69
2022/10/29 10:31:40;;;;;;;1.17;1.08;;;;;;;14.07;86.48;100576.34;5093638;28;20511;-69
2022/10/29 10:34:15;;;;;;;4.82;2.85;;;;;;;14.12;86.70;100595.16;5093668;28;20040;-71
2022/10/29 10:36:48;;;;;;;2.47;1.67;;;;;;;14.11;86.78;100601.16;5092681;28;20171;-70
2022/10/29 10:39:27;;;;;;;0.95;0.90;;;;;;;14.11;86.96;100599.44;5093895;28;20082;-70
2022/10/29 10:41:59;;;;;;;1.93;1.77;;;;;;;14.15;86.69;100597.75;5093950;28;20371;-70
2022/10/29 10:44:29;;;;;;;2.05;1.73;;;;;;;14.12;86.98;100595.16;5093602;28;20288;-71
2022/10/29 10:47:05;;;;;;;1.60;1.50;;;;;;;14.13;86.93;100596.03;5092366;28;20508;-71
2022/10/29 10:49:36;;;;;;;0.75;0.75;;;;;;;14.13;86.94;100596.91;5093818;28;20048;-71
2022/10/29 10:52:07;;;;;;;0.52;0.52;;;;;;;14.13;86.42;100586.63;5093503;28;20108;-71
2022/10/29 10:54:40;;;;;;;2.13;1.73;;;;;;;14.16;86.40;100586.59;5093546;28;20078;-71
2022/10/29 10:57:22;;;;;;;1.63;1.27;;;;;;;14.18;86.53;100595.16;5094029;28;20071;-70
2022/10/29 11:00:00;;;;;;;4.88;2.10;;;;;;;14.18;86.64;100590.00;5093462;28;20498;-71
2022/10/29 11:02:46;;;;;;;2.10;1.90;;;;;;;14.18;86.93;100579.75;5093113;28;20056;-70
2022/10/29 11:05:19;;;;;;;1.88;1.58;;;;;;;14.21;86.97;100578.88;5093387;28;20131;-71
2022/10/29 11:07:57;;;;;;;2.15;1.23;;;;;;;14.22;86.69;100570.34;5092585;28;20501;-71
2022/10/29 11:10:33;;;;;;;0.73;0.73;;;;;;;14.22;86.73;100565.22;5093314;28;20051;-71
2022/10/29 11:13:08;;;;;;;0.60;0.60;;;;;;;14.17;86.77;100562.66;5093680;28;20386;-71
2022/10/29 11:15:43;;;;;;;1.35;1.23;;;;;;;14.15;86.67;100574.63;5093562;28;20083;-72
2022/10/29 11:18:19;;;;;;;0.77;0.57;;;;;;;14.14;86.45;100578.03;5093603;28;20067;-71
2022/10/29 11:21:00;;;;;;;0.45;0.45;;;;;;;14.16;86.53;100573.75;5093089;28;20559;-70
2022/10/29 11:23:36;;;;;;;0.40;0.40;;;;;;;14.22;86.40;100580.59;5093182;28;20048;-71
2022/10/29 11:26:11;;;;;;;1.00;0.93;;;;;;;14.27;86.24;100573.75;5093816;28;20098;-71
2022/10/29 11:28:46;;;;;;;0.50;0.50;;;;;;;14.24;86.17;100569.47;5093799;28;20050;-71
2022/10/29 11:31:23;;;;;;;0.77;0.77;;;;;;;14.21;86.50;100569.47;5097002;28;20521;-70
2022/10/29 11:34:02;;;;;;;1.27;1.15;;;;;;;14.18;86.38;100571.22;5095989;28;20078;-71
2022/10/29 11:36:36;;;;;;;0.73;0.70;;;;;;;14.24;86.12;100564.34;5096892;28;20074;-70
2022/10/29 11:39:13;;;;;;;1.00;0.90;;;;;;;14.26;86.04;100554.91;5096981;28;20068;-71
2022/10/29 11:41:47;;;;;;;4.00;2.03;;;;;;;14.26;86.11;100551.50;5095548;28;20045;-71
2022/10/29 11:44:20;;;;;;;2.83;1.80;;;;;;;14.28;86.28;100539.50;5096772;28;20051;-70
2022/10/29 11:47:05;;;;;;;2.15;0.98;;;;;;;14.23;86.16;100530.97;5096942;28;20101;-71
2022/10/29 11:49:50;;;;;;;1.20;1.10;;;;;;;14.21;86.03;100527.53;5097165;28;20040;-70
2022/10/29 11:52:31;;;;;;;1.02;1.00;;;;;;;14.22;85.38;100527.56;5096510;28;20048;-70